sensor_id;sensor_type;location;lat;lon;timestamp;pressure;altitude;pressure_sealevel;temperature;humidity
23261;BME280;11799;47.740;-3.390;2023-04-28T00:02:13;101210.47;;;13.40;100.00
23261;BME280;11799;47.740;-3.390;2023-04-28T00:04:39;101211.31;;;13.41;100.00
23261;BME280;11799;47.740;-3.390;2023-04-28T00:07:04;101207.69;;;13.42;100.00
23261;BME280;11799;47.740;-3.390;2023-04-28T00:09:30;101214.69;;;13.43;100.00
23261;BME280;11799;47.740;-3.390;2023-04-28T00:11:56;101206.72;;;13.43;100.00
23261;BME280;11799;47.740;-3.390;2023-04-28T00:14:21;101209.50;;;13.41;100.00
23261;BME280;11799;47.740;-3.390;2023-04-28T00:16:47;101200.72;;;13.41;100.00
23261;BME280;11799;47.740;-3.390;2023-04-28T00:19:13;101207.69;;;13.42;100.00
23261;BME280;11799;47.740;-3.390;2023-04-28T00:21:38;101199.59;;;13.43;100.00
23261;BME280;11799;47.740;-3.390;2023-04-28T00:24:04;101198.91;;;13.41;100.00
23261;BME280;11799;47.740;-3.390;2023-04-28T00:26:30;101198.78;;;13.43;100.00
23261;BME280;11799;47.740;-3.390;2023-04-28T00:28:55;101196.25;;;13.41;100.00
23261;BME280;11799;47.740;-3.390;2023-04-28T00:31:21;101196.25;;;13.41;100.00
23261;BME280;11799;47.740;-3.390;2023-04-28T00:33:47;101198.06;;;13.41;100.00
23261;BME280;11799;47.740;-3.390;2023-04-28T00:36:12;101184.22;;;13.37;100.00
23261;BME280;11799;47.740;-3.390;2023-04-28T00:38:38;101184.78;;;13.41;100.00
23261;BME280;11799;47.740;-3.390;2023-04-28T00:41:03;101187.44;;;13.41;100.00
23261;BME280;11799;47.740;-3.390;2023-04-28T00:43:29;101186.59;;;13.40;100.00
23261;BME280;11799;47.740;-3.390;2023-04-28T00:45:55;101183.09;;;13.40;100.00
23261;BME280;11799;47.740;-3.390;2023-04-28T00:48:20;101178.78;;;13.39;100.00
23261;BME280;11799;47.740;-3.390;2023-04-28T00:50:47;101180.59;;;13.38;100.00
23261;BME280;11799;47.740;-3.390;2023-04-28T00:53:13;101185.03;;;13.38;100.00
23261;BME280;11799;47.740;-3.390;2023-04-28T00:55:39;101177.34;;;13.35;100.00
23261;BME280;11799;47.740;-3.390;2023-04-28T00:58:05;101181.56;;;13.37;100.00
23261;BME280;11799;47.740;-3.390;2023-04-28T01:00:31;101186.84;;;13.37;100.00
23261;BME280;11799;47.740;-3.390;2023-04-28T01:02:57;101182.53;;;13.36;100.00
23261;BME280;11799;47.740;-3.390;2023-04-28T01:05:28;101180.72;;;13.37;100.00
23261;BME280;11799;47.740;-3.390;2023-04-28T01:07:55;101178.06;;;13.37;100.00
23261;BME280;11799;47.740;-3.390;2023-04-28T01:10:20;101181.69;;;13.36;100.00
23261;BME280;11799;47.740;-3.390;2023-04-28T01:12:46;101175.66;;;13.34;100.00
23261;BME280;11799;47.740;-3.390;2023-04-28T01:15:17;101180.97;;;13.34;100.00
23261;BME280;11799;47.740;-3.390;2023-04-28T01:17:45;101174.09;;;13.31;100.00
23261;BME280;11799;47.740;-3.390;2023-04-28T01:20:12;101175.78;;;13.32;100.00
23261;BME280;11799;47.740;-3.390;2023-04-28T01:22:38;101177.47;;;13.33;100.00
23261;BME280;11799;47.740;-3.390;2023-04-28T01:25:03;101176.63;;;13.33;100.00
23261;BME280;11799;47.740;-3.390;2023-04-28T01:27:29;101181.09;;;13.32;100.00
23261;BME280;11799;47.740;-3.390;2023-04-28T01:29:55;101190.72;;;13.33;100.00
23261;BME280;11799;47.740;-3.390;2023-04-28T01:32:22;101182.91;;;13.32;100.00
23261;BME280;11799;47.740;-3.390;2023-04-28T01:34:48;101180.25;;;13.32;100.00
23261;BME280;11799;47.740;-3.390;2023-04-28T01:37:13;101174.94;;;13.32;100.00
23261;BME280;11799;47.740;-3.390;2023-04-28T01:39:39;101189.19;;;13.31;100.00
23261;BME280;11799;47.740;-3.390;2023-04-28T01:42:04;101179.53;;;13.30;100.00
23261;BME280;11799;47.740;-3.390;2023-04-28T01:44:31;101176.88;;;13.30;100.00
23261;BME280;11799;47.740;-3.390;2023-04-28T01:46:57;101179.53;;;13.30;100.00
23261;BME280;11799;47.740;-3.390;2023-04-28T01:49:22;101180.50;;;13.29;100.00
23261;BME280;11799;47.740;-3.390;2023-04-28T01:51:48;101178.00;;;13.27;100.00
23261;BME280;11799;47.740;-3.390;2023-04-28T01:54:14;101180.66;;;13.27;100.00
23261;BME280;11799;47.740;-3.390;2023-04-28T01:56:39;101172.72;;;13.27;100.00
23261;BME280;11799;47.740;-3.390;2023-04-28T01:59:05;101174.06;;;13.21;100.00
23261;BME280;11799;47.740;-3.390;2023-04-28T02:01:32;101180.78;;;13.26;100.00
23261;BME280;11799;47.740;-3.390;2023-04-28T02:03:59;101179.94;;;13.25;100.00
23261;BME280;11799;47.740;-3.390;2023-04-28T02:06:25;101184.28;;;13.26;100.00
23261;BME280;11799;47.740;-3.390;2023-04-28T02:08:52;101181.31;;;13.19;100.00
23261;BME280;11799;47.740;-3.390;2023-04-28T02:11:17;101185.25;;;13.25;100.00
23261;BME280;11799;47.740;-3.390;2023-04-28T02:13:43;101181.03;;;13.23;100.00
23261;BME280;11799;47.740;-3.390;2023-04-28T02:16:09;101176.84;;;13.20;100.00
23261;BME280;11799;47.740;-3.390;2023-04-28T02:18:34;101181.88;;;13.23;100.00
23261;BME280;11799;47.740;-3.390;2023-04-28T02:21:11;101186.34;;;13.23;100.00
23261;BME280;11799;47.740;-3.390;2023-04-28T02:23:37;101184.06;;;13.18;100.00
23261;BME280;11799;47.740;-3.390;2023-04-28T02:26:04;101187.31;;;13.21;100.00
23261;BME280;11799;47.740;-3.390;2023-04-28T02:28:30;101184.66;;;13.21;100.00
23261;BME280;11799;47.740;-3.390;2023-04-28T02:31:06;101186.34;;;13.23;100.00
23261;BME280;11799;47.740;-3.390;2023-04-28T02:33:33;101189.97;;;13.21;100.00
23261;BME280;11799;47.740;-3.390;2023-04-28T02:35:59;101182.28;;;13.18;100.00
23261;BME280;11799;47.740;-3.390;2023-04-28T02:38:25;101183.09;;;13.19;100.00
23261;BME280;11799;47.740;-3.390;2023-04-28T02:41:02;101187.44;;;13.20;100.00
23261;BME280;11799;47.740;-3.390;2023-04-28T02:43:30;101191.06;;;13.19;100.00
23261;BME280;11799;47.740;-3.390;2023-04-28T02:45:56;101183.09;;;13.19;100.00
23261;BME280;11799;47.740;-3.390;2023-04-28T02:48:22;101185.03;;;13.17;100.00
23261;BME280;11799;47.740;-3.390;2023-04-28T02:50:48;101180.59;;;13.17;100.00
23261;BME280;11799;47.740;-3.390;2023-04-28T02:53:14;101178.06;;;13.16;100.00
23261;BME280;11799;47.740;-3.390;2023-04-28T02:55:40;101179.75;;;13.17;100.00
23261;BME280;11799;47.740;-3.390;2023-04-28T02:58:05;101180.59;;;13.17;100.00
23261;BME280;11799;47.740;-3.390;2023-04-28T03:00:31;101175.28;;;13.17;100.00
23261;BME280;11799;47.740;-3.390;2023-04-28T03:02:57;101182.41;;;13.17;100.00
23261;BME280;11799;47.740;-3.390;2023-04-28T03:05:23;101175.41;;;13.16;100.00
23261;BME280;11799;47.740;-3.390;2023-04-28T03:07:49;101179.84;;;13.15;100.00
23261;BME280;11799;47.740;-3.390;2023-04-28T03:10:14;101178.06;;;13.16;100.00
23261;BME280;11799;47.740;-3.390;2023-04-28T03:12:40;101186.94;;;13.15;100.00
23261;BME280;11799;47.740;-3.390;2023-04-28T03:15:06;101189.59;;;13.15;100.00
23261;BME280;11799;47.740;-3.390;2023-04-28T03:17:34;101179.84;;;13.15;100.00
23261;BME280;11799;47.740;-3.390;2023-04-28T03:20:03;101190.56;;;13.14;100.00
23261;BME280;11799;47.740;-3.390;2023-04-28T03:22:29;101189.59;;;13.15;100.00
23261;BME280;11799;47.740;-3.390;2023-04-28T03:24:55;101189.72;;;13.13;100.00
23261;BME280;11799;47.740;-3.390;2023-04-28T03:27:21;101196.72;;;13.14;100.00
23261;BME280;11799;47.740;-3.390;2023-04-28T03:29:47;101200.34;;;13.13;100.00
23261;BME280;11799;47.740;-3.390;2023-04-28T03:32:13;101194.44;;;13.10;100.00
23261;BME280;11799;47.740;-3.390;2023-04-28T03:34:39;101204.78;;;13.13;100.00
23261;BME280;11799;47.740;-3.390;2023-04-28T03:37:05;101201.31;;;13.12;100.00
23261;BME280;11799;47.740;-3.390;2023-04-28T03:39:30;101208.41;;;13.12;100.00
23261;BME280;11799;47.740;-3.390;2023-04-28T03:41:56;101197.81;;;13.12;100.00
23261;BME280;11799;47.740;-3.390;2023-04-28T03:44:40;101197.94;;;13.10;100.00
23261;BME280;11799;47.740;-3.390;2023-04-28T03:47:06;101203.97;;;13.12;100.00
23261;BME280;11799;47.740;-3.390;2023-04-28T03:49:31;101203.25;;;13.10;100.00
23261;BME280;11799;47.740;-3.390;2023-04-28T03:51:57;101204.94;;;13.11;100.00
23261;BME280;11799;47.740;-3.390;2023-04-28T03:54:23;101198.78;;;13.11;100.00
23261;BME280;11799;47.740;-3.390;2023-04-28T03:56:49;101203.25;;;13.10;100.00
23261;BME280;11799;47.740;-3.390;2023-04-28T03:59:15;101201.56;;;13.09;100.00
23261;BME280;11799;47.740;-3.390;2023-04-28T04:01:41;101198.91;;;13.09;100.00
23261;BME280;11799;47.740;-3.390;2023-04-28T04:04:07;101206.00;;;13.09;100.00
23261;BME280;11799;47.740;-3.390;2023-04-28T04:06:33;101197.59;;;13.04;100.00
23261;BME280;11799;47.740;-3.390;2023-04-28T04:08:58;101207.81;;;13.08;100.00
23261;BME280;11799;47.740;-3.390;2023-04-28T04:11:24;101206.13;;;13.07;100.00
23261;BME280;11799;47.740;-3.390;2023-04-28T04:13:50;101204.47;;;13.06;100.00
23261;BME280;11799;47.740;-3.390;2023-04-28T04:16:17;101211.44;;;13.07;100.00
23261;BME280;11799;47.740;-3.390;2023-04-28T04:18:42;101215.06;;;13.06;100.00
23261;BME280;11799;47.740;-3.390;2023-04-28T04:21:15;101212.53;;;13.05;100.00
23261;BME280;11799;47.740;-3.390;2023-04-28T04:23:40;101214.22;;;13.06;100.00
23261;BME280;11799;47.740;-3.390;2023-04-28T04:26:06;101213.38;;;13.05;100.00
23261;BME280;11799;47.740;-3.390;2023-04-28T04:28:32;101207.22;;;13.05;100.00
23261;BME280;11799;47.740;-3.390;2023-04-28T04:30:58;101213.38;;;13.05;100.00
23261;BME280;11799;47.740;-3.390;2023-04-28T04:33:23;101220.50;;;13.05;100.00
23261;BME280;11799;47.740;-3.390;2023-04-28T04:35:49;101216.88;;;13.06;100.00
23261;BME280;11799;47.740;-3.390;2023-04-28T04:38:15;101220.50;;;13.05;100.00
23261;BME280;11799;47.740;-3.390;2023-04-28T04:40:41;101222.19;;;13.06;100.00
23261;BME280;11799;47.740;-3.390;2023-04-28T04:43:06;101217.84;;;13.05;100.00
23261;BME280;11799;47.740;-3.390;2023-04-28T04:45:40;101223.00;;;13.06;100.00
23261;BME280;11799;47.740;-3.390;2023-04-28T04:48:05;101222.19;;;13.06;100.00
23261;BME280;11799;47.740;-3.390;2023-04-28T04:50:31;101230.97;;;13.06;100.00
23261;BME280;11799;47.740;-3.390;2023-04-28T04:52:56;101221.22;;;13.07;100.00
23261;BME280;11799;47.740;-3.390;2023-04-28T04:55:23;101226.50;;;13.07;100.00
23261;BME280;11799;47.740;-3.390;2023-04-28T04:57:50;101225.66;;;13.06;100.00
23261;BME280;11799;47.740;-3.390;2023-04-28T05:00:26;101224.69;;;13.07;100.00
23261;BME280;11799;47.740;-3.390;2023-04-28T05:02:53;101229.16;;;13.07;100.00
23261;BME280;11799;47.740;-3.390;2023-04-28T05:05:18;101225.53;;;13.08;100.00
23261;BME280;11799;47.740;-3.390;2023-04-28T05:07:45;101215.06;;;13.06;100.00
23261;BME280;11799;47.740;-3.390;2023-04-28T05:10:10;101233.50;;;13.08;100.00
23261;BME280;11799;47.740;-3.390;2023-04-28T05:12:37;101230.00;;;13.07;100.00
23261;BME280;11799;47.740;-3.390;2023-04-28T05:15:05;101224.94;;;13.04;100.00
23261;BME280;11799;47.740;-3.390;2023-04-28T05:17:32;101227.47;;;13.06;100.00
23261;BME280;11799;47.740;-3.390;2023-04-28T05:19:57;101236.28;;;13.06;100.00
23261;BME280;11799;47.740;-3.390;2023-04-28T05:22:23;101233.75;;;13.05;100.00
23261;BME280;11799;47.740;-3.390;2023-04-28T05:24:50;101232.91;;;13.04;100.00
23261;BME280;11799;47.740;-3.390;2023-04-28T05:27:17;101234.59;;;13.05;100.00
23261;BME280;11799;47.740;-3.390;2023-04-28T05:29:43;101242.41;;;13.07;100.00
23261;BME280;11799;47.740;-3.390;2023-04-28T05:32:09;101246.88;;;13.06;100.00
23261;BME280;11799;47.740;-3.390;2023-04-28T05:34:36;101242.41;;;13.07;100.00
23261;BME280;11799;47.740;-3.390;2023-04-28T05:37:01;101243.25;;;13.07;100.00
23261;BME280;11799;47.740;-3.390;2023-04-28T05:39:29;101245.78;;;13.09;100.00
23261;BME280;11799;47.740;-3.390;2023-04-28T05:41:56;101249.28;;;13.09;100.00
23261;BME280;11799;47.740;-3.390;2023-04-28T05:44:26;101254.47;;;13.11;100.00
23261;BME280;11799;47.740;-3.390;2023-04-28T05:46:51;101260.47;;;13.13;100.00
23261;BME280;11799;47.740;-3.390;2023-04-28T05:49:22;101263.13;;;13.13;100.00
23261;BME280;11799;47.740;-3.390;2023-04-28T05:51:48;101263.97;;;13.13;100.00
23261;BME280;11799;47.740;-3.390;2023-04-28T05:54:14;101268.44;;;13.13;100.00
23261;BME280;11799;47.740;-3.390;2023-04-28T05:56:44;101278.91;;;13.14;100.00
23261;BME280;11799;47.740;-3.390;2023-04-28T05:59:09;101278.91;;;13.14;100.00
23261;BME280;11799;47.740;-3.390;2023-04-28T06:01:35;101278.91;;;13.14;100.00
23261;BME280;11799;47.740;-3.390;2023-04-28T06:04:01;101274.72;;;13.12;100.00
23261;BME280;11799;47.740;-3.390;2023-04-28T06:06:26;101285.91;;;13.15;100.00
23261;BME280;11799;47.740;-3.390;2023-04-28T06:08:52;101279.88;;;13.13;100.00
23261;BME280;11799;47.740;-3.390;2023-04-28T06:11:18;101286.78;;;13.16;100.00
23261;BME280;11799;47.740;-3.390;2023-04-28T06:13:48;101291.22;;;13.15;100.00
23261;BME280;11799;47.740;-3.390;2023-04-28T06:16:15;101290.28;;;13.16;100.00
23261;BME280;11799;47.740;-3.390;2023-04-28T06:18:41;101294.63;;;13.17;100.00
23261;BME280;11799;47.740;-3.390;2023-04-28T06:21:07;101294.50;;;13.19;100.00
23261;BME280;11799;47.740;-3.390;2023-04-28T06:23:32;101288.22;;;13.20;100.00
23261;BME280;11799;47.740;-3.390;2023-04-28T06:25:58;101290.88;;;13.20;100.00
23261;BME280;11799;47.740;-3.390;2023-04-28T06:28:23;101289.78;;;13.23;100.00
23261;BME280;11799;47.740;-3.390;2023-04-28T06:30:51;101293.53;;;13.20;100.00
23261;BME280;11799;47.740;-3.390;2023-04-28T06:33:17;101291.84;;;13.19;100.00
23261;BME280;11799;47.740;-3.390;2023-04-28T06:35:43;101286.66;;;13.17;100.00
23261;BME280;11799;47.740;-3.390;2023-04-28T06:38:10;101286.78;;;13.16;100.00
23261;BME280;11799;47.740;-3.390;2023-04-28T06:40:36;101284.84;;;13.18;100.00
23261;BME280;11799;47.740;-3.390;2023-04-28T06:43:03;101280.72;;;13.14;100.00
23261;BME280;11799;47.740;-3.390;2023-04-28T06:45:44;101285.91;;;13.15;100.00
23261;BME280;11799;47.740;-3.390;2023-04-28T06:48:10;101294.50;;;13.19;100.00
23261;BME280;11799;47.740;-3.390;2023-04-28T06:50:37;101298.22;;;13.16;100.00
23261;BME280;11799;47.740;-3.390;2023-04-28T06:53:05;101302.56;;;13.17;100.00
23261;BME280;11799;47.740;-3.390;2023-04-28T06:55:32;101303.41;;;13.18;100.00
23261;BME280;11799;47.740;-3.390;2023-04-28T06:57:58;101301.47;;;13.20;100.00
23261;BME280;11799;47.740;-3.390;2023-04-28T07:00:23;101302.31;;;13.20;100.00
23261;BME280;11799;47.740;-3.390;2023-04-28T07:02:49;101302.91;;;13.24;100.00
23261;BME280;11799;47.740;-3.390;2023-04-28T07:05:14;101304.34;;;13.28;100.00
23261;BME280;11799;47.740;-3.390;2023-04-28T07:07:40;101313.72;;;13.32;100.00
23261;BME280;11799;47.740;-3.390;2023-04-28T07:10:06;101314.44;;;13.34;100.00
23261;BME280;11799;47.740;-3.390;2023-04-28T07:12:32;101317.56;;;13.39;100.00
23261;BME280;11799;47.740;-3.390;2023-04-28T07:14:57;101305.72;;;13.43;100.00
23261;BME280;11799;47.740;-3.390;2023-04-28T07:17:23;101306.56;;;13.44;100.00
23261;BME280;11799;47.740;-3.390;2023-04-28T07:19:48;101320.56;;;13.46;100.00
23261;BME280;11799;47.740;-3.390;2023-04-28T07:22:15;101322.25;;;13.47;100.00
23261;BME280;11799;47.740;-3.390;2023-04-28T07:24:41;101328.72;;;13.54;100.00
23261;BME280;11799;47.740;-3.390;2023-04-28T07:27:07;101329.06;;;13.61;100.00
23261;BME280;11799;47.740;-3.390;2023-04-28T07:29:32;101328.81;;;13.64;100.00
23261;BME280;11799;47.740;-3.390;2023-04-28T07:32:00;101327.84;;;13.65;100.00
23261;BME280;11799;47.740;-3.390;2023-04-28T07:34:26;101340.16;;;13.66;100.00
23261;BME280;11799;47.740;-3.390;2023-04-28T07:36:52;101338.22;;;13.68;100.00
23261;BME280;11799;47.740;-3.390;2023-04-28T07:39:17;101337.84;;;13.72;100.00
23261;BME280;11799;47.740;-3.390;2023-04-28T07:41:43;101334.09;;;13.75;100.00
23261;BME280;11799;47.740;-3.390;2023-04-28T07:44:08;101331.19;;;13.78;100.00
23261;BME280;11799;47.740;-3.390;2023-04-28T07:46:35;101335.38;;;13.80;100.00
23261;BME280;11799;47.740;-3.390;2023-04-28T07:49:00;101341.16;;;13.85;100.00
23261;BME280;11799;47.740;-3.390;2023-04-28T07:51:27;101347.88;;;13.89;100.00
23261;BME280;11799;47.740;-3.390;2023-04-28T07:53:53;101349.44;;;13.92;100.00
23261;BME280;11799;47.740;-3.390;2023-04-28T07:56:19;101349.19;;;13.95;100.00
23261;BME280;11799;47.740;-3.390;2023-04-28T07:58:46;101355.78;;;14.01;100.00
23261;BME280;11799;47.740;-3.390;2023-04-28T08:01:12;101362.41;;;14.06;100.00
23261;BME280;11799;47.740;-3.390;2023-04-28T08:03:37;101363.38;;;14.05;100.00
23261;BME280;11799;47.740;-3.390;2023-04-28T08:06:03;101364.66;;;14.11;100.00
23261;BME280;11799;47.740;-3.390;2023-04-28T08:08:29;101371.41;;;14.15;100.00
23261;BME280;11799;47.740;-3.390;2023-04-28T08:10:55;101379.84;;;14.20;100.00
23261;BME280;11799;47.740;-3.390;2023-04-28T08:13:21;101378.34;;;14.27;100.00
23261;BME280;11799;47.740;-3.390;2023-04-28T08:15:47;101380.50;;;14.33;100.00
23261;BME280;11799;47.740;-3.390;2023-04-28T08:18:13;101372.00;;;14.39;100.00
23261;BME280;11799;47.740;-3.390;2023-04-28T08:20:39;101379.63;;;14.44;100.00
23261;BME280;11799;47.740;-3.390;2023-04-28T08:23:06;101377.19;;;14.41;100.00
23261;BME280;11799;47.740;-3.390;2023-04-28T08:25:32;101386.19;;;14.49;100.00
23261;BME280;11799;47.740;-3.390;2023-04-28T08:27:57;101385.09;;;14.52;100.00
23261;BME280;11799;47.740;-3.390;2023-04-28T08:30:23;101383.16;;;14.54;100.00
23261;BME280;11799;47.740;-3.390;2023-04-28T08:32:49;101386.91;;;14.51;100.00
23261;BME280;11799;47.740;-3.390;2023-04-28T08:35:14;101383.16;;;14.54;100.00
23261;BME280;11799;47.740;-3.390;2023-04-28T08:37:40;101385.94;;;14.52;100.00
23261;BME280;11799;47.740;-3.390;2023-04-28T08:40:06;101389.03;;;14.58;100.00
23261;BME280;11799;47.740;-3.390;2023-04-28T08:42:36;101387.22;;;14.58;100.00
23261;BME280;11799;47.740;-3.390;2023-04-28T08:45:03;101392.41;;;14.60;100.00
23261;BME280;11799;47.740;-3.390;2023-04-28T08:47:37;101399.59;;;14.69;100.00
23261;BME280;11799;47.740;-3.390;2023-04-28T08:50:05;101396.03;;;14.79;100.00
23261;BME280;11799;47.740;-3.390;2023-04-28T08:52:31;101402.91;;;14.82;100.00
23261;BME280;11799;47.740;-3.390;2023-04-28T08:54:59;101392.56;;;14.89;100.00
23261;BME280;11799;47.740;-3.390;2023-04-28T08:57:26;101402.22;;;14.90;100.00
23261;BME280;11799;47.740;-3.390;2023-04-28T08:59:53;101401.00;;;15.03;100.00
23261;BME280;11799;47.740;-3.390;2023-04-28T09:02:18;101396.16;;;15.18;100.00
23261;BME280;11799;47.740;-3.390;2023-04-28T09:04:46;101393.84;;;15.34;100.00
23261;BME280;11799;47.740;-3.390;2023-04-28T09:07:12;101393.88;;;15.44;100.00
23261;BME280;11799;47.740;-3.390;2023-04-28T09:09:38;101404.53;;;15.53;100.00
23261;BME280;11799;47.740;-3.390;2023-04-28T09:12:06;101402.03;;;15.62;100.00
23261;BME280;11799;47.740;-3.390;2023-04-28T09:14:33;101411.69;;;15.63;100.00
23261;BME280;11799;47.740;-3.390;2023-04-28T09:16:59;101410.44;;;15.67;100.00
23261;BME280;11799;47.740;-3.390;2023-04-28T09:19:33;101412.97;;;15.68;100.00
23261;BME280;11799;47.740;-3.390;2023-04-28T09:21:59;101415.50;;;15.70;100.00
23261;BME280;11799;47.740;-3.390;2023-04-28T09:24:29;101409.91;;;15.73;100.00
23261;BME280;11799;47.740;-3.390;2023-04-28T09:26:56;101405.13;;;15.67;100.00
23261;BME280;11799;47.740;-3.390;2023-04-28T09:29:22;101409.19;;;15.71;100.00
23261;BME280;11799;47.740;-3.390;2023-04-28T09:31:48;101409.06;;;15.72;100.00
23261;BME280;11799;47.740;-3.390;2023-04-28T09:34:14;101407.25;;;15.73;100.00
23261;BME280;11799;47.740;-3.390;2023-04-28T09:36:40;101400.22;;;15.72;100.00
23261;BME280;11799;47.740;-3.390;2023-04-28T09:39:06;101401.63;;;15.76;100.00
23261;BME280;11799;47.740;-3.390;2023-04-28T09:41:39;101401.66;;;15.85;100.00
23261;BME280;11799;47.740;-3.390;2023-04-28T09:44:16;101391.28;;;16.02;100.00
23261;BME280;11799;47.740;-3.390;2023-04-28T09:46:44;101392.13;;;16.12;100.00
23261;BME280;11799;47.740;-3.390;2023-04-28T09:49:11;101392.91;;;16.32;100.00
23261;BME280;11799;47.740;-3.390;2023-04-28T09:51:36;101391.34;;;16.48;100.00
23261;BME280;11799;47.740;-3.390;2023-04-28T09:54:02;101390.78;;;16.64;100.00
23261;BME280;11799;47.740;-3.390;2023-04-28T09:56:29;101384.50;;;16.93;100.00
23261;BME280;11799;47.740;-3.390;2023-04-28T09:58:56;101385.88;;;16.97;100.00
23261;BME280;11799;47.740;-3.390;2023-04-28T10:01:26;101382.94;;;17.00;100.00
23261;BME280;11799;47.740;-3.390;2023-04-28T10:03:52;101392.97;;;17.15;100.00
23261;BME280;11799;47.740;-3.390;2023-04-28T10:06:19;101392.53;;;17.20;100.00
23261;BME280;11799;47.740;-3.390;2023-04-28T10:08:45;101396.19;;;17.19;100.00
23261;BME280;11799;47.740;-3.390;2023-04-28T10:11:14;101400.53;;;17.20;100.00
23261;BME280;11799;47.740;-3.390;2023-04-28T10:13:41;101401.63;;;17.27;100.00
23261;BME280;11799;47.740;-3.390;2023-04-28T10:16:09;101405.19;;;17.36;100.00
23261;BME280;11799;47.740;-3.390;2023-04-28T10:18:36;101406.00;;;17.46;100.00
23261;BME280;11799;47.740;-3.390;2023-04-28T10:21:03;101406.53;;;17.49;100.00
23261;BME280;11799;47.740;-3.390;2023-04-28T10:26:03;101411.44;;;17.54;100.00
23261;BME280;11799;47.740;-3.390;2023-04-28T10:28:35;101409.41;;;17.66;100.00
23261;BME280;11799;47.740;-3.390;2023-04-28T10:31:13;101408.38;;;17.76;100.00
23261;BME280;11799;47.740;-3.390;2023-04-28T10:33:40;101413.94;;;17.83;100.00
23261;BME280;11799;47.740;-3.390;2023-04-28T10:36:06;101409.88;;;17.97;100.00
23261;BME280;11799;47.740;-3.390;2023-04-28T10:38:33;101407.19;;;17.97;100.00
23261;BME280;11799;47.740;-3.390;2023-04-28T10:41:00;101404.75;;;18.03;100.00
23261;BME280;11799;47.740;-3.390;2023-04-28T10:43:37;101404.44;;;18.06;100.00
23261;BME280;11799;47.740;-3.390;2023-04-28T10:46:05;101407.88;;;18.17;100.00
23261;BME280;11799;47.740;-3.390;2023-04-28T11:08:36;101402.63;;;18.51;100.00
23261;BME280;11799;47.740;-3.390;2023-04-28T11:11:18;101395.56;;;18.41;100.00
23261;BME280;11799;47.740;-3.390;2023-04-28T11:13:45;101393.75;;;18.50;100.00
23261;BME280;11799;47.740;-3.390;2023-04-28T11:16:14;101398.91;;;18.43;100.00
23261;BME280;11799;47.740;-3.390;2023-04-28T11:21:22;101391.28;;;18.31;100.00
23261;BME280;11799;47.740;-3.390;2023-04-28T11:23:48;101395.81;;;18.30;100.00
23261;BME280;11799;47.740;-3.390;2023-04-28T11:26:14;101389.09;;;18.26;100.00
23261;BME280;11799;47.740;-3.390;2023-04-28T11:28:47;101395.13;;;18.28;100.00
23261;BME280;11799;47.740;-3.390;2023-04-28T11:31:14;101389.78;;;18.28;100.00
23261;BME280;11799;47.740;-3.390;2023-04-28T11:34:09;101393.75;;;18.24;100.00
23261;BME280;11799;47.740;-3.390;2023-04-28T11:36:41;101386.78;;;18.31;100.00
23261;BME280;11799;47.740;-3.390;2023-04-28T11:39:08;101385.63;;;18.34;100.00
23261;BME280;11799;47.740;-3.390;2023-04-28T11:41:36;101373.94;;;18.35;100.00
23261;BME280;11799;47.740;-3.390;2023-04-28T11:44:19;101374.84;;;18.43;100.00
23261;BME280;11799;47.740;-3.390;2023-04-28T11:49:16;101383.94;;;18.59;100.00
23261;BME280;11799;47.740;-3.390;2023-04-28T11:51:42;101380.59;;;18.57;100.00
23261;BME280;11799;47.740;-3.390;2023-04-28T11:54:10;101376.16;;;18.65;100.00
23261;BME280;11799;47.740;-3.390;2023-04-28T11:56:38;101387.38;;;18.69;100.00
23261;BME280;11799;47.740;-3.390;2023-04-28T11:59:06;101385.25;;;18.72;100.00
23261;BME280;11799;47.740;-3.390;2023-04-28T12:02:22;101395.66;;;18.84;100.00
23261;BME280;11799;47.740;-3.390;2023-04-28T12:04:39;101393.19;;;18.90;100.00
23261;BME280;11799;47.740;-3.390;2023-04-28T12:07:06;101387.38;;;18.95;100.00
23261;BME280;11799;47.740;-3.390;2023-04-28T12:09:36;101393.25;;;18.98;100.00
23261;BME280;11799;47.740;-3.390;2023-04-28T12:12:04;101390.25;;;19.01;100.00
23261;BME280;11799;47.740;-3.390;2023-04-28T12:14:31;101394.94;;;19.07;100.00
23261;BME280;11799;47.740;-3.390;2023-04-28T12:17:00;101403.16;;;19.14;100.00
23261;BME280;11799;47.740;-3.390;2023-04-28T12:19:26;101393.66;;;19.20;100.00
23261;BME280;11799;47.740;-3.390;2023-04-28T12:22:03;101395.72;;;19.34;100.00
23261;BME280;11799;47.740;-3.390;2023-04-28T12:24:29;101390.06;;;19.45;100.00
23261;BME280;11799;47.740;-3.390;2023-04-28T12:27:15;101402.50;;;19.54;100.00
23261;BME280;11799;47.740;-3.390;2023-04-28T12:29:42;101388.63;;;19.67;100.00
23261;BME280;11799;47.740;-3.390;2023-04-28T12:32:10;101398.19;;;19.77;100.00
23261;BME280;11799;47.740;-3.390;2023-04-28T12:34:37;101395.69;;;19.84;100.00
23261;BME280;11799;47.740;-3.390;2023-04-28T12:37:04;101383.63;;;19.88;100.00
23261;BME280;11799;47.740;-3.390;2023-04-28T12:39:34;101386.31;;;19.88;100.00
23261;BME280;11799;47.740;-3.390;2023-04-28T12:42:01;101384.97;;;19.92;100.00
23261;BME280;11799;47.740;-3.390;2023-04-28T12:44:35;101386.81;;;19.92;100.00
23261;BME280;11799;47.740;-3.390;2023-04-28T12:47:05;101388.16;;;19.96;100.00
23261;BME280;11799;47.740;-3.390;2023-04-28T12:49:32;101386.66;;;20.01;100.00
23261;BME280;11799;47.740;-3.390;2023-04-28T12:51:58;101388.50;;;20.09;100.00
23261;BME280;11799;47.740;-3.390;2023-04-28T12:54:23;101394.53;;;20.19;100.00
23261;BME280;11799;47.740;-3.390;2023-04-28T12:56:49;101388.81;;;20.30;100.00
23261;BME280;11799;47.740;-3.390;2023-04-28T12:59:15;101384.81;;;20.42;100.00